createdAt,value
2017-12-09T00:01:26.379Z,3.20
2017-12-09T00:03:57.710Z,4.43
2017-12-09T00:06:29.514Z,3.97
2017-12-09T00:09:00.515Z,2.80
2017-12-09T00:11:31.792Z,2.40
2017-12-09T00:14:03.301Z,2.70
2017-12-09T00:16:34.334Z,2.43
2017-12-09T00:19:05.394Z,2.40
2017-12-09T00:21:37.291Z,2.78
2017-12-09T00:24:08.254Z,2.80
2017-12-09T00:26:39.556Z,2.65
2017-12-09T00:29:10.626Z,2.87
2017-12-09T00:31:42.081Z,2.90
2017-12-09T00:34:13.030Z,3.00
2017-12-09T00:36:44.267Z,3.45
2017-12-09T00:39:15.511Z,3.50
2017-12-09T00:41:46.424Z,2.92
2017-12-09T00:44:17.686Z,2.95
2017-12-09T00:46:48.654Z,2.90
2017-12-09T00:49:20.354Z,2.90
2017-12-09T00:51:52.073Z,2.70
2017-12-09T00:54:23.030Z,2.60
2017-12-09T00:56:54.745Z,2.45
2017-12-09T00:59:26.015Z,2.70
2017-12-09T01:01:57.763Z,2.30
2017-12-09T01:04:28.689Z,2.65
2017-12-09T01:06:59.723Z,2.50
2017-12-09T01:09:30.697Z,2.10
2017-12-09T01:12:01.825Z,2.00
2017-12-09T01:14:33.413Z,2.20
2017-12-09T01:17:15.430Z,2.15
2017-12-09T01:19:46.894Z,2.20
2017-12-09T01:22:18.571Z,1.70
2017-12-09T01:24:49.964Z,1.90
2017-12-09T01:27:22.711Z,2.60
2017-12-09T01:29:54.858Z,2.70
2017-12-09T01:32:26.667Z,2.17
2017-12-09T01:34:59.460Z,2.47
2017-12-09T01:37:31.851Z,2.12
2017-12-09T01:40:03.255Z,2.50
2017-12-09T01:42:34.778Z,2.35
2017-12-09T01:45:08.206Z,2.40
2017-12-09T01:47:39.919Z,1.60
2017-12-09T01:50:10.927Z,2.08
2017-12-09T01:52:41.947Z,1.80
2017-12-09T01:55:14.581Z,1.70
2017-12-09T01:57:45.951Z,1.90
2017-12-09T02:00:17.682Z,1.50
2017-12-09T02:02:49.859Z,1.45
2017-12-09T02:05:21.526Z,1.70
2017-12-09T02:07:53.609Z,1.75
2017-12-09T02:10:26.801Z,1.63
2017-12-09T02:12:58.822Z,2.00
2017-12-09T02:15:30.157Z,1.75
2017-12-09T02:18:01.678Z,1.87
2017-12-09T02:20:34.042Z,1.60
2017-12-09T02:23:05.318Z,1.55
2017-12-09T02:25:36.892Z,2.03
2017-12-09T02:28:15.564Z,2.10
2017-12-09T02:30:48.558Z,1.62
2017-12-09T02:33:20.111Z,1.60
2017-12-09T02:35:51.931Z,1.50
2017-12-09T02:38:23.519Z,1.60
2017-12-09T02:40:55.284Z,1.70
2017-12-09T02:43:27.051Z,1.57
2017-12-09T02:45:58.544Z,1.40
2017-12-09T02:48:30.460Z,1.30
2017-12-09T02:51:02.023Z,1.70
2017-12-09T02:53:33.787Z,1.30
2017-12-09T02:56:05.743Z,1.62
2017-12-09T02:58:42.255Z,1.50
2017-12-09T03:01:13.733Z,1.40
2017-12-09T03:03:45.928Z,1.70
2017-12-09T03:06:17.546Z,2.00
2017-12-09T03:08:49.526Z,1.80
2017-12-09T03:11:21.614Z,1.90
2017-12-09T03:13:53.071Z,1.80
2017-12-09T03:16:24.500Z,2.60
2017-12-09T03:18:56.006Z,1.90
2017-12-09T03:21:29.195Z,2.35
2017-12-09T03:24:00.851Z,2.30
2017-12-09T03:26:32.686Z,2.33
2017-12-09T03:29:04.243Z,2.20
2017-12-09T03:31:35.645Z,2.08
2017-12-09T03:34:08.554Z,2.30
2017-12-09T03:36:40.775Z,2.08
2017-12-09T03:39:12.661Z,2.30
2017-12-09T03:41:44.884Z,2.78
2017-12-09T03:44:16.590Z,2.70
2017-12-09T03:46:47.786Z,3.70
2017-12-09T03:49:19.322Z,3.83
2017-12-09T03:51:51.370Z,3.53
2017-12-09T03:54:22.871Z,3.30
2017-12-09T03:56:54.651Z,4.10
2017-12-09T03:59:26.059Z,4.30
2017-12-09T04:01:57.858Z,2.60
2017-12-09T04:04:29.511Z,2.50
2017-12-09T04:07:00.574Z,2.65
2017-12-09T04:09:33.471Z,2.40
2017-12-09T04:12:04.554Z,2.30
2017-12-09T04:14:36.126Z,2.50
2017-12-09T04:17:07.430Z,2.00
2017-12-09T04:19:39.182Z,2.30
2017-12-09T04:22:10.487Z,2.00
2017-12-09T04:24:42.361Z,2.03
2017-12-09T04:27:14.471Z,1.85
2017-12-09T04:29:47.030Z,2.30
2017-12-09T04:32:18.939Z,2.33
2017-12-09T04:34:50.202Z,1.77
2017-12-09T04:37:22.379Z,2.28
2017-12-09T04:39:54.198Z,1.65
2017-12-09T04:42:25.175Z,1.75
2017-12-09T04:44:57.011Z,1.80
2017-12-09T04:47:28.209Z,2.42
2017-12-09T04:50:00.423Z,2.00
2017-12-09T04:52:31.944Z,2.00
2017-12-09T04:55:03.783Z,2.10
2017-12-09T04:57:35.218Z,2.60
2017-12-09T05:00:07.247Z,1.65
2017-12-09T05:02:39.506Z,1.70
2017-12-09T05:05:10.806Z,1.70
2017-12-09T05:07:43.060Z,1.55
2017-12-09T05:10:14.228Z,1.50
2017-12-09T05:12:46.018Z,1.60
2017-12-09T05:15:17.484Z,1.90
2017-12-09T05:17:50.409Z,1.62
2017-12-09T05:20:21.594Z,2.40
2017-12-09T05:22:53.026Z,1.80
2017-12-09T05:25:24.547Z,1.80
2017-12-09T05:27:56.286Z,1.92
2017-12-09T05:30:27.408Z,2.12
2017-12-09T05:32:58.399Z,1.90
2017-12-09T05:35:29.345Z,2.10
2017-12-09T05:38:00.722Z,2.10
2017-12-09T05:40:31.702Z,1.70
2017-12-09T05:43:02.707Z,2.20
2017-12-09T05:45:33.774Z,2.20
2017-12-09T05:48:05.603Z,1.80
2017-12-09T05:50:36.757Z,2.00
2017-12-09T05:53:08.780Z,1.60
2017-12-09T05:55:40.633Z,1.80
2017-12-09T05:58:11.742Z,2.10
2017-12-09T06:00:42.986Z,1.90
2017-12-09T06:03:14.033Z,1.90
2017-12-09T06:05:45.846Z,1.90
2017-12-09T06:08:16.822Z,1.50
2017-12-09T06:10:48.630Z,1.85
2017-12-09T06:13:19.662Z,2.00
2017-12-09T06:15:50.687Z,1.60
2017-12-09T06:18:22.676Z,1.52
2017-12-09T06:20:53.739Z,2.10
2017-12-09T06:23:25.332Z,1.60
2017-12-09T06:25:57.762Z,1.70
2017-12-09T06:28:29.231Z,1.98
2017-12-09T06:31:00.182Z,2.10
2017-12-09T06:33:31.735Z,1.87
2017-12-09T06:36:02.717Z,1.55
2017-12-09T06:38:34.026Z,2.20
2017-12-09T06:41:05.314Z,1.63
2017-12-09T06:43:37.126Z,2.13
2017-12-09T06:46:08.360Z,2.05
2017-12-09T06:48:39.401Z,2.83
2017-12-09T06:51:10.375Z,2.10
2017-12-09T06:53:41.765Z,2.10
2017-12-09T06:56:12.926Z,1.80
2017-12-09T06:58:43.886Z,1.85
2017-12-09T07:01:15.202Z,2.20
2017-12-09T07:03:46.343Z,1.55
2017-12-09T07:06:17.374Z,2.17
2017-12-09T07:08:48.650Z,1.60
2017-12-09T07:11:19.774Z,2.60
2017-12-09T07:13:51.071Z,2.20
2017-12-09T07:16:22.321Z,2.12
2017-12-09T07:18:53.290Z,1.95
2017-12-09T07:21:24.575Z,1.52
2017-12-09T07:23:55.646Z,3.97
2017-12-09T07:26:26.699Z,4.77
2017-12-09T07:28:58.858Z,1.62
2017-12-09T07:31:31.921Z,2.85
2017-12-09T07:34:05.355Z,2.70
2017-12-09T07:36:36.387Z,2.50
2017-12-09T07:39:08.235Z,2.10
2017-12-09T07:41:40.356Z,2.90
2017-12-09T07:44:11.479Z,1.50
2017-12-09T07:46:42.506Z,2.73
2017-12-09T07:49:13.506Z,1.98
2017-12-09T07:51:44.456Z,2.47
2017-12-09T07:54:16.250Z,2.80
2017-12-09T07:56:47.310Z,2.30
2017-12-09T07:59:19.033Z,2.15
2017-12-09T08:08:02.409Z,1.92
2017-12-09T08:10:33.518Z,1.83
2017-12-09T08:13:05.422Z,1.52
2017-12-09T08:15:37.424Z,1.70
2017-12-09T08:18:08.417Z,1.30
2017-12-09T08:20:39.346Z,1.50
2017-12-09T08:23:10.957Z,1.50
2017-12-09T08:25:42.755Z,1.52
2017-12-09T08:28:15.531Z,1.70
2017-12-09T08:30:47.582Z,1.87
2017-12-09T08:33:19.502Z,1.67
2017-12-09T08:35:50.579Z,4.10
2017-12-09T08:38:21.685Z,2.60
2017-12-09T08:40:52.737Z,1.77
2017-12-09T08:43:23.940Z,4.83
2017-12-09T08:45:54.969Z,3.20
2017-12-09T08:48:26.452Z,4.55
2017-12-09T08:50:58.794Z,3.90
2017-12-09T08:53:29.958Z,4.37
2017-12-09T08:56:01.125Z,4.10
2017-12-09T08:58:32.474Z,6.03
2017-12-09T09:01:03.685Z,5.73
2017-12-09T09:03:35.518Z,3.03
2017-12-09T09:06:07.904Z,2.78
2017-12-09T09:08:39.019Z,2.42
2017-12-09T09:11:10.335Z,2.57
2017-12-09T09:13:41.318Z,2.47
2017-12-09T09:16:12.656Z,3.62
2017-12-09T09:18:44.321Z,2.67
2017-12-09T09:21:16.515Z,4.30
2017-12-09T09:23:48.592Z,6.12
2017-12-09T09:26:20.122Z,3.80
2017-12-09T09:28:51.663Z,4.10
2017-12-09T09:31:23.107Z,3.05
2017-12-09T09:33:54.133Z,3.10
2017-12-09T09:36:25.854Z,3.00
2017-12-09T09:38:56.883Z,2.12
2017-12-09T09:41:29.566Z,2.50
2017-12-09T09:44:00.653Z,2.42
2017-12-09T09:46:32.169Z,2.80
2017-12-09T09:49:03.673Z,2.03
2017-12-09T09:51:34.714Z,1.70
2017-12-09T09:54:06.896Z,3.10
2017-12-09T09:56:38.630Z,2.40
2017-12-09T09:59:09.855Z,2.70
2017-12-09T10:01:41.211Z,2.00
2017-12-09T10:04:12.231Z,2.60
2017-12-09T10:06:43.419Z,1.92
2017-12-09T10:09:14.878Z,2.03
2017-12-09T10:11:47.047Z,2.17
2017-12-09T10:14:18.922Z,2.40
2017-12-09T10:16:50.461Z,2.30
2017-12-09T10:19:21.760Z,2.00
2017-12-09T10:21:53.078Z,1.70
2017-12-09T10:24:25.857Z,1.73
2017-12-09T10:26:57.059Z,1.83
2017-12-09T10:29:28.596Z,2.10
2017-12-09T10:31:59.986Z,2.20
2017-12-09T10:34:31.817Z,2.20
2017-12-09T10:37:02.930Z,2.50
2017-12-09T10:39:34.455Z,2.50
2017-12-09T10:42:06.200Z,2.20
2017-12-09T10:44:38.707Z,2.10
2017-12-09T10:47:10.250Z,1.90
2017-12-09T10:49:41.313Z,2.70
2017-12-09T10:52:12.800Z,2.47
2017-12-09T10:54:44.857Z,1.90
2017-12-09T10:57:16.015Z,2.00
2017-12-09T10:59:47.618Z,1.90
2017-12-09T11:03:14.422Z,2.30
2017-12-09T11:05:46.956Z,2.67
2017-12-09T11:08:18.685Z,1.80
2017-12-09T11:10:50.703Z,2.50
2017-12-09T11:14:18.575Z,2.30
2017-12-09T11:16:49.577Z,2.90
2017-12-09T11:19:22.985Z,5.68
2017-12-09T11:21:54.650Z,2.03
2017-12-09T11:24:28.785Z,1.70
2017-12-09T11:27:07.400Z,2.10
2017-12-09T11:29:41.480Z,2.40
2017-12-09T11:32:13.371Z,1.80
2017-12-09T11:34:45.303Z,1.70
2017-12-09T11:37:17.096Z,2.12
2017-12-09T11:39:51.774Z,1.20
2017-12-09T11:42:28.171Z,1.60
2017-12-09T11:45:00.266Z,1.90
2017-12-09T11:47:33.234Z,1.50
2017-12-09T11:50:11.340Z,2.67
2017-12-09T11:52:47.530Z,1.90
2017-12-09T11:55:24.776Z,2.35
2017-12-09T11:58:05.203Z,2.30
2017-12-09T12:00:41.005Z,1.92
2017-12-09T12:03:15.580Z,2.80
2017-12-09T12:05:47.422Z,1.52
2017-12-09T12:08:19.026Z,1.98
2017-12-09T12:10:54.132Z,2.00
2017-12-09T12:13:31.549Z,2.67
2017-12-09T12:16:03.483Z,2.00
2017-12-09T12:18:40.706Z,1.73
2017-12-09T12:21:21.391Z,1.80
2017-12-09T12:23:55.265Z,2.70
2017-12-09T12:26:27.228Z,2.00
2017-12-09T12:28:58.307Z,5.00
2017-12-09T12:31:29.396Z,2.62
2017-12-09T12:34:02.370Z,3.60
2017-12-09T12:36:38.893Z,3.03
2017-12-09T12:39:11.103Z,3.08
2017-12-09T12:41:45.033Z,2.43
2017-12-09T12:44:17.788Z,2.87
2017-12-09T12:46:50.268Z,2.87
2017-12-09T12:50:22.639Z,3.87
2017-12-09T12:53:01.430Z,2.50
2017-12-09T12:55:39.561Z,3.90
2017-12-09T12:58:11.534Z,5.00
2017-12-09T13:00:43.840Z,2.83
2017-12-09T13:03:15.332Z,2.12
2017-12-09T13:05:46.954Z,1.80
2017-12-09T13:08:19.130Z,2.45
2017-12-09T13:10:51.394Z,2.00
2017-12-09T13:13:51.882Z,3.90
2017-12-09T13:16:24.943Z,7.87
2017-12-09T13:18:56.401Z,7.10
2017-12-09T13:21:27.775Z,3.53
2017-12-09T13:23:59.162Z,3.60
2017-12-09T13:26:31.123Z,3.30
2017-12-09T13:29:04.908Z,2.80
2017-12-09T13:31:39.916Z,2.15
2017-12-09T13:34:11.517Z,1.77
2017-12-09T13:36:42.649Z,2.97
2017-12-09T13:39:23.103Z,2.45
2017-12-09T13:41:56.634Z,6.10
2017-12-09T13:44:29.326Z,3.72
2017-12-09T13:47:00.358Z,2.10
2017-12-09T13:49:31.433Z,3.30
2017-12-09T13:52:09.679Z,4.00
2017-12-09T13:54:48.842Z,2.70
2017-12-09T13:57:27.196Z,5.57
2017-12-09T13:59:58.271Z,3.08
2017-12-09T14:02:29.694Z,2.47
2017-12-09T14:05:02.195Z,1.70
2017-12-09T14:07:34.898Z,2.50
2017-12-09T14:10:06.123Z,2.70
2017-12-09T14:14:22.528Z,2.90
2017-12-09T14:17:02.850Z,3.90
2017-12-09T14:19:41.979Z,2.20
2017-12-09T14:22:13.169Z,1.80
2017-12-09T14:24:44.629Z,2.85
2017-12-09T14:27:15.616Z,4.10
2017-12-09T14:29:47.167Z,2.03
2017-12-09T14:32:18.658Z,3.17
2017-12-09T14:35:04.028Z,2.30
2017-12-09T14:37:45.573Z,2.33
2017-12-09T14:40:18.908Z,2.05
2017-12-09T14:42:51.114Z,2.75
2017-12-09T14:45:22.431Z,2.17
2017-12-09T14:47:59.795Z,3.17
2017-12-09T14:50:38.899Z,2.22
2017-12-09T14:53:16.629Z,2.35
2017-12-09T14:55:48.780Z,4.10
2017-12-09T14:58:19.893Z,3.67
2017-12-09T15:00:56.700Z,2.62
2017-12-09T15:05:41.038Z,2.70
2017-12-09T15:09:22.712Z,3.40
2017-12-09T15:12:03.576Z,2.37
2017-12-09T15:14:45.043Z,3.65
2017-12-09T15:17:47.468Z,2.80
2017-12-09T15:20:18.793Z,2.30
2017-12-09T15:22:50.144Z,3.20
2017-12-09T15:25:22.051Z,2.65
2017-12-09T15:27:56.454Z,2.33
2017-12-09T15:30:27.690Z,1.60
2017-12-09T15:32:59.727Z,1.90
2017-12-09T15:35:30.998Z,2.90
2017-12-09T15:38:07.194Z,3.80
2017-12-09T15:40:39.647Z,2.10
2017-12-09T15:43:11.613Z,2.62
2017-12-09T15:45:43.287Z,2.10
2017-12-09T15:48:14.634Z,1.67
2017-12-09T15:50:48.043Z,2.40
2017-12-09T15:53:26.209Z,4.30
2017-12-09T15:56:03.012Z,4.23
2017-12-09T15:58:39.829Z,5.33
2017-12-09T16:01:12.638Z,4.30
2017-12-09T16:03:49.702Z,4.40
2017-12-09T16:06:25.495Z,4.32
2017-12-09T16:08:59.253Z,2.73
2017-12-09T16:11:31.248Z,3.33
2017-12-09T16:14:06.868Z,4.05
2017-12-09T16:16:43.442Z,6.35
2017-12-09T16:19:16.853Z,4.37
2017-12-09T16:21:50.403Z,15.83
2017-12-09T16:24:21.862Z,4.90
2017-12-09T16:26:53.435Z,3.40
2017-12-09T16:29:24.628Z,5.20
2017-12-09T16:31:56.860Z,4.80
2017-12-09T16:36:38.004Z,5.05
2017-12-09T16:39:10.449Z,20.15
2017-12-09T16:41:45.802Z,6.70
2017-12-09T16:44:17.799Z,5.37
2017-12-09T16:46:55.172Z,5.57
2017-12-09T16:49:26.863Z,3.00
2017-12-09T16:52:02.593Z,4.87
2017-12-09T16:54:39.566Z,7.07
2017-12-09T16:57:11.246Z,3.12
2017-12-09T16:59:42.209Z,3.12
2017-12-09T17:02:13.614Z,6.65
2017-12-09T17:04:44.749Z,4.22
2017-12-09T17:07:18.770Z,10.20
2017-12-09T17:09:49.829Z,8.23
2017-12-09T17:12:21.384Z,8.20
2017-12-09T17:14:58.205Z,8.50
2017-12-09T17:19:14.573Z,9.30
2017-12-09T17:21:47.113Z,7.78
2017-12-09T17:24:27.098Z,8.30
2017-12-09T17:27:02.074Z,7.70
2017-12-09T17:29:40.417Z,5.82
2017-12-09T17:32:14.183Z,7.20
2017-12-09T17:34:50.038Z,6.30
2017-12-09T17:37:28.449Z,6.40
2017-12-09T17:40:00.206Z,6.80
2017-12-09T17:45:10.934Z,7.30
2017-12-09T17:47:41.976Z,6.03
2017-12-09T17:50:14.329Z,5.85
2017-12-09T17:52:49.190Z,5.20
2017-12-09T17:55:27.452Z,4.10
2017-12-09T17:58:00.151Z,5.57
2017-12-09T18:00:31.927Z,5.80
2017-12-09T18:03:05.191Z,7.60
2017-12-09T18:05:36.842Z,9.83
2017-12-09T18:08:08.347Z,8.68
2017-12-09T18:10:39.883Z,13.77
2017-12-09T18:13:11.482Z,6.05
2017-12-09T18:15:43.309Z,10.13
2017-12-09T18:18:14.937Z,10.90
2017-12-09T18:20:46.333Z,7.70
2017-12-09T18:23:19.009Z,8.55
2017-12-09T18:25:51.625Z,8.20
2017-12-09T18:28:24.999Z,8.33
2017-12-09T18:30:58.565Z,5.53
2017-12-09T18:33:30.675Z,5.17
2017-12-09T18:36:03.451Z,3.60
2017-12-09T18:38:35.371Z,3.17
2017-12-09T18:41:08.360Z,4.22
2017-12-09T18:43:39.894Z,4.07
2017-12-09T18:46:12.317Z,4.15
2017-12-09T18:48:44.817Z,3.80
2017-12-09T18:51:17.600Z,3.97
2017-12-09T18:53:51.410Z,2.40
2017-12-09T18:56:23.108Z,2.10
2017-12-09T18:58:54.916Z,1.90
2017-12-09T19:01:28.095Z,2.50
2017-12-09T19:04:01.066Z,2.33
2017-12-09T19:06:33.377Z,1.87
2017-12-09T19:09:07.035Z,2.40
2017-12-09T19:11:44.426Z,2.20
2017-12-09T19:14:16.593Z,2.20
2017-12-09T19:16:48.388Z,2.55
2017-12-09T19:19:23.407Z,2.00
2017-12-09T19:21:55.972Z,2.00
2017-12-09T19:24:29.448Z,2.12
2017-12-09T19:27:02.183Z,2.08
2017-12-09T19:29:34.223Z,1.67
2017-12-09T19:32:05.382Z,1.70
2017-12-09T19:34:36.551Z,2.08
2017-12-09T19:37:08.308Z,1.55
2017-12-09T19:40:09.901Z,1.60
2017-12-09T19:42:41.490Z,1.73
2017-12-09T19:45:14.248Z,1.52
2017-12-09T19:47:47.935Z,1.60
2017-12-09T19:50:23.923Z,1.50
2017-12-09T19:52:58.329Z,1.87
2017-12-09T19:55:29.867Z,1.90
2017-12-09T19:58:03.538Z,2.00
2017-12-09T20:00:36.422Z,2.10
2017-12-09T20:03:08.632Z,1.80
2017-12-09T20:05:42.882Z,1.90
2017-12-09T20:08:16.198Z,2.40
2017-12-09T20:10:50.772Z,2.30
2017-12-09T20:15:54.845Z,2.00
2017-12-09T20:18:27.636Z,1.70
2017-12-09T20:21:02.609Z,2.53
2017-12-09T20:23:34.624Z,1.90
2017-12-09T20:26:10.387Z,2.75
2017-12-09T20:31:27.571Z,3.00
2017-12-09T20:33:59.533Z,3.10
2017-12-09T20:36:30.924Z,2.50
2017-12-09T20:39:02.602Z,2.20
2017-12-09T20:41:35.523Z,2.45
2017-12-09T20:44:10.636Z,2.10
2017-12-09T20:46:43.860Z,2.70
2017-12-09T20:49:17.172Z,2.80
2017-12-09T20:51:49.149Z,2.90
2017-12-09T20:54:23.012Z,2.60
2017-12-09T20:57:01.969Z,2.40
2017-12-09T20:59:36.579Z,2.40
2017-12-09T21:02:08.587Z,2.70
2017-12-09T21:04:44.983Z,2.63
2017-12-09T21:07:21.317Z,2.95
2017-12-09T21:10:22.812Z,2.92
2017-12-09T21:12:55.964Z,3.70
2017-12-09T21:15:28.809Z,2.42
2017-12-09T21:18:00.324Z,2.10
2017-12-09T21:20:32.604Z,2.00
2017-12-09T21:23:05.293Z,1.93
2017-12-09T21:25:43.416Z,1.37
2017-12-09T21:28:16.304Z,1.80
2017-12-09T21:30:49.392Z,1.80
2017-12-09T21:33:22.741Z,1.40
2017-12-09T21:35:55.549Z,1.33
2017-12-09T21:38:29.338Z,1.40
2017-12-09T21:41:03.310Z,1.55
2017-12-09T21:43:34.909Z,1.40
2017-12-09T21:46:07.752Z,1.20
2017-12-09T21:48:39.629Z,1.50
2017-12-09T21:51:13.392Z,1.40
2017-12-09T21:53:46.961Z,1.60
2017-12-09T21:56:21.822Z,1.42
2017-12-09T21:58:56.790Z,1.50
2017-12-09T22:01:29.509Z,1.67
2017-12-09T22:04:05.324Z,1.80
2017-12-09T22:06:39.028Z,2.00
2017-12-09T22:09:12.646Z,1.25
2017-12-09T22:11:44.391Z,1.50
2017-12-09T22:14:15.960Z,1.40
2017-12-09T22:16:47.322Z,3.00
2017-12-09T22:19:18.802Z,1.40
2017-12-09T22:21:51.942Z,1.30
2017-12-09T22:24:25.818Z,1.37
2017-12-09T22:26:57.453Z,1.87
2017-12-09T22:29:28.981Z,1.83
2017-12-09T22:32:00.146Z,1.27
2017-12-09T22:34:31.890Z,1.70
2017-12-09T22:37:03.198Z,1.80
2017-12-09T22:39:34.392Z,1.80
2017-12-09T22:42:05.407Z,1.80
2017-12-09T22:44:36.584Z,2.00
2017-12-09T22:47:07.720Z,1.60
2017-12-09T22:49:40.151Z,1.80
2017-12-09T22:52:12.555Z,2.00
2017-12-09T22:54:44.800Z,1.70
2017-12-09T22:57:16.594Z,1.67
2017-12-09T22:59:48.520Z,1.53
2017-12-09T23:02:20.927Z,1.50
2017-12-09T23:04:51.996Z,1.70
2017-12-09T23:07:24.433Z,1.87
2017-12-09T23:09:55.835Z,1.48
2017-12-09T23:12:26.818Z,2.07
2017-12-09T23:14:57.993Z,1.60
2017-12-09T23:17:29.197Z,1.80
2017-12-09T23:20:00.492Z,1.77
2017-12-09T23:22:31.621Z,1.60
2017-12-09T23:25:03.482Z,1.80
2017-12-09T23:27:34.639Z,1.90
2017-12-09T23:30:05.722Z,1.80
2017-12-09T23:32:37.434Z,1.80
2017-12-09T23:35:09.808Z,1.62
2017-12-09T23:37:41.585Z,2.00
2017-12-09T23:40:13.114Z,1.90
2017-12-09T23:42:44.644Z,1.60
2017-12-09T23:45:15.954Z,1.30
2017-12-09T23:47:47.521Z,1.80
2017-12-09T23:50:19.076Z,1.60
2017-12-09T23:52:51.678Z,1.80
2017-12-09T23:55:22.740Z,1.75
2017-12-09T23:57:54.595Z,1.87
